createdAt,value
2022-10-23T00:00:01.071Z,11.17
2022-10-23T00:01:01.234Z,11.13
2022-10-23T00:02:00.459Z,11.09
2022-10-23T00:03:00.646Z,11.08
2022-10-23T00:04:00.688Z,11.07
2022-10-23T00:05:00.824Z,11.03
2022-10-23T00:06:00.982Z,10.99
2022-10-23T00:07:01.134Z,10.96
2022-10-23T00:08:00.291Z,10.94
2022-10-23T00:09:00.429Z,10.92
2022-10-23T00:10:00.570Z,10.9
2022-10-23T00:11:00.717Z,10.92
2022-10-23T00:12:00.865Z,10.9
2022-10-23T00:13:01.014Z,10.87
2022-10-23T00:14:01.163Z,10.84
2022-10-23T00:15:00.282Z,10.82
2022-10-23T00:16:00.442Z,10.81
2022-10-23T00:17:00.581Z,10.81
2022-10-23T00:18:00.756Z,10.81
2022-10-23T00:19:00.882Z,10.81
2022-10-23T00:20:01.032Z,10.8
2022-10-23T00:21:01.176Z,10.81
2022-10-23T00:22:00.347Z,10.83
2022-10-23T00:23:00.487Z,10.83
2022-10-23T00:24:00.662Z,10.83
2022-10-23T00:25:00.766Z,10.8
2022-10-23T00:26:00.906Z,10.78
2022-10-23T00:27:01.060Z,10.77
2022-10-23T00:28:01.210Z,10.81
2022-10-23T00:29:00.354Z,10.83
2022-10-23T00:30:00.508Z,10.85
2022-10-23T00:31:00.652Z,10.88
2022-10-23T00:32:00.790Z,10.9
2022-10-23T00:33:00.985Z,10.9
2022-10-23T00:34:01.100Z,10.86
2022-10-23T00:35:01.241Z,10.82
2022-10-23T00:36:00.388Z,10.79
2022-10-23T00:37:00.539Z,10.74
2022-10-23T00:38:00.705Z,10.72
2022-10-23T00:39:00.856Z,10.72
2022-10-23T00:40:00.986Z,10.72
2022-10-23T00:41:01.131Z,10.7
2022-10-23T00:42:00.272Z,10.68
2022-10-23T00:43:00.421Z,10.66
2022-10-23T00:44:00.591Z,10.66
2022-10-23T00:45:00.709Z,10.66
2022-10-23T00:46:00.881Z,10.65
2022-10-23T00:47:01.011Z,10.62
2022-10-23T00:48:01.153Z,10.62
2022-10-23T00:49:00.394Z,10.59
2022-10-23T00:50:00.446Z,10.59
2022-10-23T00:51:00.587Z,10.57
2022-10-23T00:52:00.729Z,10.56
2022-10-23T00:53:00.878Z,10.56
2022-10-23T00:54:12.802Z,10.55
2022-10-23T00:55:01.179Z,10.54
2022-10-23T00:56:00.350Z,10.53
2022-10-23T00:57:00.462Z,10.51
2022-10-23T00:58:00.609Z,10.49
2022-10-23T00:59:00.749Z,10.45
2022-10-23T01:00:00.905Z,10.44
2022-10-23T01:01:01.121Z,10.43
2022-10-23T01:02:01.421Z,10.43
2022-10-23T01:03:00.342Z,10.42
2022-10-23T01:04:00.491Z,10.42
2022-10-23T01:05:00.645Z,10.4
2022-10-23T01:06:00.807Z,10.38
2022-10-23T01:07:00.952Z,10.35
2022-10-23T01:08:01.083Z,10.34
2022-10-23T01:09:01.234Z,10.35
2022-10-23T01:10:00.391Z,10.35
2022-10-23T01:11:00.548Z,10.36
2022-10-23T01:12:00.702Z,10.35
2022-10-23T01:13:00.829Z,10.34
2022-10-23T01:14:00.976Z,10.33
2022-10-23T01:15:01.128Z,10.31
2022-10-23T01:16:00.267Z,10.28
2022-10-23T01:17:00.429Z,10.25
2022-10-23T01:18:00.563Z,10.25
2022-10-23T01:19:00.708Z,10.25
2022-10-23T01:20:00.868Z,10.25
2022-10-23T01:21:01.010Z,10.26
2022-10-23T01:22:01.183Z,10.28
2022-10-23T01:23:00.297Z,10.26
2022-10-23T01:24:00.448Z,10.28
2022-10-23T01:25:00.605Z,10.3
2022-10-23T01:26:00.756Z,10.27
2022-10-23T01:27:00.913Z,10.23
2022-10-23T01:28:01.076Z,10.2
2022-10-23T01:29:01.203Z,10.16
2022-10-23T01:30:00.346Z,10.14
2022-10-23T01:31:00.493Z,10.14
2022-10-23T01:32:00.637Z,10.13
2022-10-23T01:33:00.818Z,10.13
2022-10-23T01:34:00.985Z,10.13
2022-10-23T01:35:01.093Z,10.14
2022-10-23T01:36:01.238Z,10.13
2022-10-23T01:37:00.391Z,10.12
2022-10-23T01:38:00.543Z,10.11
2022-10-23T01:39:00.777Z,10.09
2022-10-23T01:40:00.826Z,10.06
2022-10-23T01:41:00.978Z,10.04
2022-10-23T01:42:01.138Z,10.04
2022-10-23T01:43:00.276Z,10.04
2022-10-23T01:44:00.440Z,10.06
2022-10-23T01:45:00.571Z,10.04
2022-10-23T01:46:00.719Z,10
2022-10-23T01:47:00.869Z,9.98
2022-10-23T01:48:01.016Z,9.96
2022-10-23T01:49:01.183Z,9.96
2022-10-23T01:50:00.305Z,9.96
2022-10-23T01:51:00.447Z,9.95
2022-10-23T01:52:00.603Z,9.97
2022-10-23T01:53:00.747Z,9.98
2022-10-23T01:54:00.910Z,9.99
2022-10-23T01:55:01.031Z,9.98
2022-10-23T01:56:01.204Z,9.96
2022-10-23T01:57:00.346Z,9.92
2022-10-23T01:58:00.485Z,9.9
2022-10-23T01:59:00.657Z,9.88
2022-10-23T02:00:00.779Z,9.86
2022-10-23T02:01:00.954Z,9.82
2022-10-23T02:02:01.279Z,9.81
2022-10-23T02:03:01.223Z,9.79
2022-10-23T02:04:00.411Z,9.77
2022-10-23T02:05:00.518Z,9.75
2022-10-23T02:06:00.663Z,9.74
2022-10-23T02:07:00.819Z,9.74
2022-10-23T02:08:00.965Z,9.74
2022-10-23T02:09:01.150Z,9.71
2022-10-23T02:10:00.268Z,9.69
2022-10-23T02:11:00.425Z,9.67
2022-10-23T02:12:00.583Z,9.65
2022-10-23T02:13:00.710Z,9.64
2022-10-23T02:14:00.918Z,9.61
2022-10-23T02:15:01.018Z,9.6
2022-10-23T02:16:01.143Z,9.6
2022-10-23T02:17:00.302Z,9.62
2022-10-23T02:18:00.466Z,9.63
2022-10-23T02:19:00.590Z,9.62
2022-10-23T02:20:00.738Z,9.6
2022-10-23T02:21:00.890Z,9.56
2022-10-23T02:22:01.042Z,9.53
2022-10-23T02:23:01.218Z,9.5
2022-10-23T02:24:00.329Z,9.49
2022-10-23T02:25:00.488Z,9.48
2022-10-23T02:26:00.638Z,9.46
2022-10-23T02:27:00.790Z,9.45
2022-10-23T02:28:00.969Z,9.46
2022-10-23T02:29:01.188Z,9.48
2022-10-23T02:30:01.225Z,9.47
2022-10-23T02:31:00.370Z,9.47
2022-10-23T02:32:00.516Z,9.45
2022-10-23T02:33:00.673Z,9.42
2022-10-23T02:34:00.854Z,9.41
2022-10-23T02:35:00.959Z,9.4
2022-10-23T02:36:01.127Z,9.4
2022-10-23T02:37:00.259Z,9.39
2022-10-23T02:38:00.416Z,9.37
2022-10-23T02:39:00.576Z,9.35
2022-10-23T02:40:00.699Z,9.32
2022-10-23T02:41:00.840Z,9.31
2022-10-23T02:42:01.003Z,9.29
2022-10-23T02:43:01.139Z,9.29
2022-10-23T02:44:00.310Z,9.29
2022-10-23T02:45:00.434Z,9.26
2022-10-23T02:46:00.585Z,9.21
2022-10-23T02:47:00.739Z,9.18
2022-10-23T02:48:00.893Z,9.15
2022-10-23T02:49:01.050Z,9.12
2022-10-23T02:50:01.182Z,9.12
2022-10-23T02:51:00.324Z,9.11
2022-10-23T02:52:00.482Z,9.11
2022-10-23T02:53:00.623Z,9.11
2022-10-23T02:54:00.810Z,9.1
2022-10-23T02:55:00.948Z,9.1
2022-10-23T02:56:01.078Z,9.08
2022-10-23T02:57:01.215Z,9.06
2022-10-23T02:58:00.373Z,9.07
2022-10-23T02:59:00.519Z,9.05
2022-10-23T03:00:00.675Z,9.02
2022-10-23T03:01:00.874Z,8.97
2022-10-23T03:02:01.051Z,8.96
2022-10-23T03:03:01.143Z,8.95
2022-10-23T03:04:00.264Z,8.95
2022-10-23T03:05:00.406Z,8.95
2022-10-23T03:06:00.588Z,8.96
2022-10-23T03:07:00.711Z,8.95
2022-10-23T03:08:00.860Z,8.95
2022-10-23T03:09:01.017Z,8.94
2022-10-23T03:10:01.152Z,8.94
2022-10-23T03:11:00.328Z,8.94
2022-10-23T03:12:00.443Z,8.94
2022-10-23T03:13:00.599Z,8.94
2022-10-23T03:14:00.744Z,8.94
2022-10-23T03:15:00.909Z,8.94
2022-10-23T03:16:01.059Z,8.94
2022-10-23T03:17:01.198Z,8.94
2022-10-23T03:18:00.348Z,8.89
2022-10-23T03:19:00.529Z,8.88
2022-10-23T03:20:00.634Z,8.87
2022-10-23T03:21:00.809Z,8.85
2022-10-23T03:22:00.960Z,8.82
2022-10-23T03:23:01.080Z,8.81
2022-10-23T03:24:01.237Z,8.8
2022-10-23T03:25:00.373Z,8.78
2022-10-23T03:26:00.518Z,8.76
2022-10-23T03:27:00.693Z,8.74
2022-10-23T03:28:00.828Z,8.72
2022-10-23T03:29:00.979Z,8.7
2022-10-23T03:30:01.124Z,8.73
2022-10-23T03:31:00.250Z,8.71
2022-10-23T03:32:00.429Z,8.72
2022-10-23T03:33:00.545Z,8.7
2022-10-23T03:34:02.235Z,8.67
2022-10-23T03:35:00.847Z,8.65
2022-10-23T03:36:00.994Z,8.64
2022-10-23T03:37:01.151Z,8.62
2022-10-23T03:38:00.281Z,8.62
2022-10-23T03:39:00.447Z,8.59
2022-10-23T03:40:00.581Z,8.53
2022-10-23T03:41:00.741Z,8.52
2022-10-23T03:42:00.880Z,8.5
2022-10-23T03:43:01.018Z,8.49
2022-10-23T03:44:01.277Z,8.48
2022-10-23T03:45:00.306Z,8.49
2022-10-23T03:46:00.457Z,8.49
2022-10-23T03:47:00.598Z,8.5
2022-10-23T03:48:00.776Z,8.52
2022-10-23T03:49:00.906Z,8.56
2022-10-23T03:50:01.051Z,8.57
2022-10-23T03:51:01.193Z,8.59
2022-10-23T03:52:00.321Z,8.6
2022-10-23T03:53:00.493Z,8.57
2022-10-23T03:54:00.645Z,8.49
2022-10-23T03:55:00.778Z,8.45
2022-10-23T03:56:00.916Z,8.42
2022-10-23T03:57:01.072Z,8.37
2022-10-23T03:58:01.206Z,8.39
2022-10-23T03:59:00.372Z,8.36
2022-10-23T04:00:00.512Z,8.36
2022-10-23T04:01:00.764Z,8.36
2022-10-23T04:02:00.977Z,8.36
2022-10-23T04:03:00.947Z,8.33
2022-10-23T04:04:01.106Z,8.33
2022-10-23T04:05:01.261Z,8.33
2022-10-23T04:06:00.382Z,8.33
2022-10-23T04:07:00.536Z,8.34
2022-10-23T04:08:00.690Z,8.32
2022-10-23T04:09:00.957Z,8.3
2022-10-23T04:10:01.032Z,8.29
2022-10-23T04:11:01.158Z,8.28
2022-10-23T04:12:00.311Z,8.26
2022-10-23T04:13:00.453Z,8.26
2022-10-23T04:14:00.603Z,8.24
2022-10-23T04:15:00.776Z,8.24
2022-10-23T04:16:00.906Z,8.22
2022-10-23T04:17:01.037Z,8.23
2022-10-23T04:18:01.179Z,8.2
2022-10-23T04:19:00.329Z,8.18
2022-10-23T04:20:00.490Z,8.15
2022-10-23T04:21:00.644Z,8.13
2022-10-23T04:22:00.767Z,8.11
2022-10-23T04:23:00.932Z,8.11
2022-10-23T04:24:01.063Z,8.09
2022-10-23T04:25:01.224Z,8.09
2022-10-23T04:26:00.379Z,8.09
2022-10-23T04:27:00.510Z,8.08
2022-10-23T04:28:00.652Z,8.06
2022-10-23T04:29:00.813Z,8.05
2022-10-23T04:30:00.964Z,8.03
2022-10-23T04:31:01.137Z,8.03
2022-10-23T04:32:00.267Z,8.02
2022-10-23T04:33:00.419Z,8.01
2022-10-23T04:34:00.588Z,7.99
2022-10-23T04:35:00.720Z,7.98
2022-10-23T04:36:00.882Z,7.96
2022-10-23T04:37:01.003Z,7.94
2022-10-23T04:38:01.155Z,7.93
2022-10-23T04:39:00.295Z,7.94
2022-10-23T04:40:00.454Z,7.96
2022-10-23T04:41:00.618Z,7.97
2022-10-23T04:42:00.738Z,7.93
2022-10-23T04:43:00.899Z,7.91
2022-10-23T04:44:01.043Z,7.9
2022-10-23T04:45:01.181Z,7.87
2022-10-23T04:46:00.358Z,7.87
2022-10-23T04:47:00.475Z,7.86
2022-10-23T04:48:00.629Z,7.88
2022-10-23T04:49:00.776Z,7.88
2022-10-23T04:50:00.917Z,7.88
2022-10-23T04:51:01.108Z,7.89
2022-10-23T04:52:01.252Z,7.89
2022-10-23T04:53:00.379Z,7.87
2022-10-23T04:54:00.531Z,7.85
2022-10-23T04:55:00.679Z,7.83
2022-10-23T04:56:00.829Z,7.79
2022-10-23T04:57:00.986Z,7.78
2022-10-23T04:58:01.117Z,7.77
2022-10-23T04:59:00.318Z,7.77
2022-10-23T05:00:00.417Z,7.75
2022-10-23T05:01:00.710Z,7.74
2022-10-23T05:02:00.741Z,7.74
2022-10-23T05:03:00.864Z,7.74
2022-10-23T05:04:01.013Z,7.72
2022-10-23T05:05:01.155Z,7.71
2022-10-23T05:06:00.298Z,7.69
2022-10-23T05:07:00.474Z,7.65
2022-10-23T05:08:00.607Z,7.63
2022-10-23T05:09:00.759Z,7.62
2022-10-23T05:10:00.909Z,7.62
2022-10-23T05:11:01.067Z,7.62
2022-10-23T05:12:01.249Z,7.62
2022-10-23T05:13:00.360Z,7.62
2022-10-23T05:14:00.505Z,7.62
2022-10-23T05:15:00.654Z,7.61
2022-10-23T05:16:00.798Z,7.59
2022-10-23T05:17:00.965Z,7.59
2022-10-23T05:18:01.123Z,7.59
2022-10-23T05:19:01.247Z,7.59
2022-10-23T05:20:00.399Z,7.57
2022-10-23T05:21:00.542Z,7.55
2022-10-23T05:22:00.699Z,7.55
2022-10-23T05:23:00.878Z,7.53
2022-10-23T05:24:01.039Z,7.5
2022-10-23T05:25:01.161Z,7.5
2022-10-23T05:26:00.303Z,7.49
2022-10-23T05:27:00.448Z,7.48
2022-10-23T05:28:00.614Z,7.46
2022-10-23T05:29:00.738Z,7.44
2022-10-23T05:30:00.899Z,7.43
2022-10-23T05:31:01.028Z,7.43
2022-10-23T05:32:01.181Z,7.42
2022-10-23T05:33:00.354Z,7.41
2022-10-23T05:34:00.474Z,7.41
2022-10-23T05:35:00.623Z,7.41
2022-10-23T05:36:00.762Z,7.42
2022-10-23T05:37:00.908Z,7.42
2022-10-23T05:38:01.086Z,7.4
2022-10-23T05:39:01.220Z,7.41
2022-10-23T05:40:00.360Z,7.41
2022-10-23T05:41:00.502Z,7.42
2022-10-23T05:42:00.658Z,7.39
2022-10-23T05:43:00.832Z,7.35
2022-10-23T05:44:00.969Z,7.33
2022-10-23T05:45:01.105Z,7.32
2022-10-23T05:46:01.250Z,7.3
2022-10-23T05:47:00.392Z,7.3
2022-10-23T05:48:10.883Z,7.33
2022-10-23T05:49:00.718Z,7.32
2022-10-23T05:50:00.834Z,7.3
2022-10-23T05:51:00.977Z,7.31
2022-10-23T05:52:01.129Z,7.34
2022-10-23T05:53:00.282Z,7.33
2022-10-23T05:54:00.439Z,7.34
2022-10-23T05:55:00.565Z,7.32
2022-10-23T05:56:00.707Z,7.3
2022-10-23T05:57:00.869Z,7.3
2022-10-23T05:58:01.003Z,7.32
2022-10-23T05:59:01.160Z,7.34
2022-10-23T06:00:00.293Z,7.39
2022-10-23T06:01:00.539Z,7.39
2022-10-23T06:02:00.676Z,7.4
2022-10-23T06:03:00.734Z,7.41
2022-10-23T06:04:00.914Z,7.43
2022-10-23T06:05:01.044Z,7.43
2022-10-23T06:06:01.178Z,7.45
2022-10-23T06:07:00.342Z,7.45
2022-10-23T06:08:00.478Z,7.45
2022-10-23T06:09:00.659Z,7.44
2022-10-23T06:10:00.817Z,7.45
2022-10-23T06:11:00.959Z,7.48
2022-10-23T06:12:01.096Z,7.47
2022-10-23T06:13:01.233Z,7.45
2022-10-23T06:14:00.382Z,7.42
2022-10-23T06:15:00.559Z,7.4
2022-10-23T06:16:00.673Z,7.39
2022-10-23T06:17:00.830Z,7.37
2022-10-23T06:18:00.973Z,7.4
2022-10-23T06:19:01.120Z,7.47
2022-10-23T06:20:00.285Z,7.48
2022-10-23T06:21:00.425Z,7.48
2022-10-23T06:22:00.567Z,7.49
2022-10-23T06:23:00.709Z,7.49
2022-10-23T06:24:00.856Z,7.56
2022-10-23T06:25:01.035Z,7.59
2022-10-23T06:26:01.149Z,7.6
2022-10-23T06:27:00.301Z,7.62
2022-10-23T06:28:00.446Z,7.67
2022-10-23T06:29:00.601Z,7.65
2022-10-23T06:30:00.755Z,7.65
2022-10-23T06:31:00.884Z,7.64
2022-10-23T06:32:01.028Z,7.6
2022-10-23T06:33:03.367Z,7.59
2022-10-23T06:34:00.326Z,7.57
2022-10-23T06:35:00.506Z,7.57
2022-10-23T06:36:00.613Z,7.56
2022-10-23T06:37:00.755Z,7.57
2022-10-23T06:38:00.898Z,7.57
2022-10-23T06:39:01.052Z,7.59
2022-10-23T06:40:01.226Z,7.59
2022-10-23T06:41:00.338Z,7.58
2022-10-23T06:42:00.492Z,7.59
2022-10-23T06:43:00.645Z,7.6
2022-10-23T06:44:00.790Z,7.63
2022-10-23T06:45:04.783Z,7.65
2022-10-23T06:46:01.103Z,7.68
2022-10-23T06:47:01.227Z,7.67
2022-10-23T06:48:00.371Z,7.67
2022-10-23T06:49:00.530Z,7.68
2022-10-23T06:50:00.672Z,7.69
2022-10-23T06:51:00.838Z,7.73
2022-10-23T06:52:00.965Z,7.76
2022-10-23T06:53:01.106Z,7.79
2022-10-23T06:54:01.241Z,7.81
2022-10-23T06:55:00.388Z,7.85
2022-10-23T06:56:00.551Z,7.88
2022-10-23T06:57:00.729Z,7.93
2022-10-23T06:58:00.834Z,7.97
2022-10-23T06:59:00.979Z,8.02
2022-10-23T07:00:01.123Z,8.08
2022-10-23T07:01:00.363Z,8.17
2022-10-23T07:02:00.449Z,8.26
2022-10-23T07:03:00.556Z,8.3
2022-10-23T07:04:00.702Z,8.36
2022-10-23T07:05:00.860Z,8.41
2022-10-23T07:06:01.007Z,8.45
2022-10-23T07:07:01.177Z,8.47
2022-10-23T07:08:00.310Z,8.55
2022-10-23T07:09:00.451Z,8.62
2022-10-23T07:10:00.649Z,8.67
2022-10-23T07:11:00.762Z,8.71
2022-10-23T07:12:00.950Z,8.77
2022-10-23T07:13:01.332Z,8.79
2022-10-23T07:14:01.218Z,8.87
2022-10-23T07:15:00.362Z,8.93
2022-10-23T07:16:00.522Z,8.94
2022-10-23T07:17:00.700Z,9.04
2022-10-23T07:18:00.827Z,9.15
2022-10-23T07:19:00.971Z,9.26
2022-10-23T07:20:01.114Z,9.31
2022-10-23T07:21:00.257Z,9.36
2022-10-23T07:22:00.418Z,9.39
2022-10-23T07:23:00.563Z,9.42
2022-10-23T07:24:00.702Z,9.47
2022-10-23T07:25:00.853Z,9.5
2022-10-23T07:26:01.031Z,9.54
2022-10-23T07:27:01.148Z,9.59
2022-10-23T07:28:00.298Z,9.61
2022-10-23T07:29:00.447Z,9.64
2022-10-23T07:30:00.592Z,9.69
2022-10-23T07:31:00.755Z,9.74
2022-10-23T07:32:00.873Z,9.77
2022-10-23T07:33:01.036Z,9.81
2022-10-23T07:34:01.169Z,9.89
2022-10-23T07:35:00.463Z,9.92
2022-10-23T07:36:00.495Z,9.97
2022-10-23T07:37:00.616Z,10.01
2022-10-23T07:38:00.779Z,10.07
2022-10-23T07:39:00.924Z,10.12
2022-10-23T07:40:01.068Z,10.15
2022-10-23T07:41:01.233Z,10.2
2022-10-23T07:42:00.343Z,10.23
2022-10-23T07:43:00.502Z,10.28
2022-10-23T07:44:00.658Z,10.33
2022-10-23T07:45:00.804Z,10.34
2022-10-23T07:46:00.962Z,10.37
2022-10-23T07:47:01.107Z,10.39
2022-10-23T07:48:01.233Z,10.41
2022-10-23T07:49:00.376Z,10.44
2022-10-23T07:50:00.527Z,10.46
2022-10-23T07:51:00.679Z,10.5
2022-10-23T07:52:00.911Z,10.52
2022-10-23T07:53:00.983Z,10.55
2022-10-23T07:54:01.143Z,10.6
2022-10-23T07:55:00.280Z,10.67
2022-10-23T07:56:00.430Z,10.72
2022-10-23T07:57:00.595Z,10.78
2022-10-23T07:58:00.757Z,10.84
2022-10-23T07:59:00.875Z,10.93
2022-10-23T08:00:01.032Z,10.99
2022-10-23T08:01:01.244Z,11.04
2022-10-23T08:02:00.423Z,11.09
2022-10-23T08:03:00.478Z,11.15
2022-10-23T08:04:00.596Z,11.24
2022-10-23T08:05:00.733Z,11.3
2022-10-23T08:06:00.877Z,11.38
2022-10-23T08:07:01.027Z,11.43
2022-10-23T08:08:01.205Z,11.48
2022-10-23T08:09:03.697Z,11.55
2022-10-23T08:10:00.472Z,11.61
2022-10-23T08:11:00.624Z,11.69
2022-10-23T08:12:00.764Z,11.74
2022-10-23T08:13:00.951Z,11.78
2022-10-23T08:14:01.078Z,11.83
2022-10-23T08:15:01.216Z,11.88
2022-10-23T08:16:00.361Z,11.93
2022-10-23T08:17:03.434Z,11.99
2022-10-23T08:18:00.679Z,12.05
2022-10-23T08:19:00.797Z,12.12
2022-10-23T08:20:00.944Z,12.18
2022-10-23T08:21:01.097Z,12.25
2022-10-23T08:22:01.258Z,12.32
2022-10-23T08:23:00.413Z,12.37
2022-10-23T08:24:00.546Z,12.41
2022-10-23T08:25:00.690Z,12.43
2022-10-23T08:26:00.854Z,12.45
2022-10-23T08:27:00.991Z,12.47
2022-10-23T08:28:04.226Z,12.51
2022-10-23T08:29:00.297Z,12.55
2022-10-23T08:30:00.453Z,12.57
2022-10-23T08:31:00.609Z,12.59
2022-10-23T08:32:00.747Z,12.59
2022-10-23T08:33:00.920Z,12.6
2022-10-23T08:34:01.065Z,12.64
2022-10-23T08:35:01.199Z,12.7
2022-10-23T08:36:00.353Z,12.74
2022-10-23T08:37:00.488Z,12.78
2022-10-23T08:38:00.650Z,12.82
2022-10-23T08:39:00.797Z,12.88
2022-10-23T08:40:00.941Z,12.89
2022-10-23T08:41:01.085Z,12.87
2022-10-23T08:42:01.287Z,12.86
2022-10-23T08:43:00.371Z,12.86
2022-10-23T08:44:00.538Z,12.86
2022-10-23T08:45:00.671Z,12.87
2022-10-23T08:46:00.823Z,12.89
2022-10-23T08:47:00.960Z,12.91
2022-10-23T08:48:01.110Z,12.94
2022-10-23T08:49:00.292Z,12.95
2022-10-23T08:50:00.397Z,12.96
2022-10-23T08:51:00.551Z,12.96
2022-10-23T08:52:00.704Z,12.97
2022-10-23T08:53:00.847Z,13
2022-10-23T08:54:01.024Z,13.01
2022-10-23T08:55:01.169Z,13.03
2022-10-23T08:56:00.283Z,13.05
2022-10-23T08:57:00.445Z,13.09
2022-10-23T08:58:00.573Z,13.11
2022-10-23T08:59:00.722Z,13.15
2022-10-23T09:00:00.887Z,13.19
2022-10-23T09:01:01.131Z,13.25
2022-10-23T09:02:01.277Z,13.31
2022-10-23T09:03:00.319Z,13.36
2022-10-23T09:04:00.470Z,13.41
2022-10-23T09:05:00.626Z,13.47
2022-10-23T09:06:00.755Z,13.53
2022-10-23T09:07:00.987Z,13.58
2022-10-23T09:08:01.054Z,13.61
2022-10-23T09:09:01.206Z,13.63
2022-10-23T09:10:00.360Z,13.65
2022-10-23T09:11:00.501Z,13.67
2022-10-23T09:12:00.652Z,13.71
2022-10-23T09:13:00.789Z,13.75
2022-10-23T09:14:00.940Z,13.78
2022-10-23T09:15:01.116Z,13.82
2022-10-23T09:16:01.235Z,13.84
2022-10-23T09:17:00.365Z,13.86
2022-10-23T09:18:00.505Z,13.88
2022-10-23T09:19:00.664Z,13.92
2022-10-23T09:20:00.814Z,13.95
2022-10-23T09:21:00.980Z,13.97
2022-10-23T09:22:01.104Z,14
2022-10-23T09:23:00.249Z,14.05
2022-10-23T09:24:00.425Z,14.08
2022-10-23T09:25:00.549Z,14.11
2022-10-23T09:26:00.703Z,14.14
2022-10-23T09:27:00.901Z,14.19
2022-10-23T09:28:01.548Z,14.24
2022-10-23T09:29:01.146Z,14.28
2022-10-23T09:30:00.292Z,14.33
2022-10-23T09:31:00.445Z,14.37
2022-10-23T09:32:00.575Z,14.43
2022-10-23T09:33:00.724Z,14.44
2022-10-23T09:34:00.854Z,14.51
2022-10-23T09:35:01.019Z,14.57
2022-10-23T09:36:01.173Z,14.67
2022-10-23T09:37:00.291Z,14.73
2022-10-23T09:38:00.428Z,14.8
2022-10-23T09:39:00.582Z,14.84
2022-10-23T09:40:00.735Z,14.89
2022-10-23T09:41:00.898Z,14.94
2022-10-23T09:42:01.028Z,15
2022-10-23T09:43:01.168Z,15.06
2022-10-23T09:44:00.315Z,15.09
2022-10-23T09:45:00.455Z,15.12
2022-10-23T09:46:00.627Z,15.17
2022-10-23T09:47:00.758Z,15.18
2022-10-23T09:48:00.892Z,15.22
2022-10-23T09:49:03.599Z,15.25
2022-10-23T09:50:01.196Z,15.27
2022-10-23T09:51:00.373Z,15.31
2022-10-23T09:52:00.490Z,15.34
2022-10-23T09:53:00.638Z,15.39
2022-10-23T09:54:00.776Z,15.45
2022-10-23T09:55:00.927Z,15.51
2022-10-23T09:56:01.108Z,15.55
2022-10-23T09:57:01.213Z,15.58
2022-10-23T09:58:00.372Z,15.62
2022-10-23T09:59:00.516Z,15.69
2022-10-23T10:00:00.660Z,15.73
2022-10-23T10:01:00.983Z,15.78
2022-10-23T10:02:01.136Z,15.8
2022-10-23T10:03:01.120Z,15.83
2022-10-23T10:04:01.248Z,15.88
2022-10-23T10:05:00.393Z,15.93
2022-10-23T10:06:00.548Z,15.97
2022-10-23T10:07:00.714Z,16.01
2022-10-23T10:08:00.845Z,16.04
2022-10-23T10:09:00.982Z,16.06
2022-10-23T10:10:01.146Z,16.08
2022-10-23T10:11:00.280Z,16.11
2022-10-23T10:12:00.445Z,16.12
2022-10-23T10:13:00.568Z,16.14
2022-10-23T10:14:00.721Z,16.16
2022-10-23T10:15:00.855Z,16.19
2022-10-23T10:16:01.006Z,16.21
2022-10-23T10:17:01.162Z,16.25
2022-10-23T10:18:00.295Z,16.26
2022-10-23T10:19:00.440Z,16.26
2022-10-23T10:20:03.862Z,16.31
2022-10-23T10:21:00.721Z,16.35
2022-10-23T10:22:00.900Z,16.37
2022-10-23T10:23:01.037Z,16.42
2022-10-23T10:24:01.184Z,16.45
2022-10-23T10:25:00.335Z,16.47
2022-10-23T10:26:00.487Z,16.47
2022-10-23T10:27:00.667Z,16.48
2022-10-23T10:28:00.804Z,16.5
2022-10-23T10:29:00.941Z,16.5
2022-10-23T10:30:01.086Z,16.49
2022-10-23T10:31:01.227Z,16.49
2022-10-23T10:32:00.420Z,16.49
2022-10-23T10:33:00.546Z,16.49
2022-10-23T10:34:00.694Z,16.47
2022-10-23T10:35:00.835Z,16.46
2022-10-23T10:36:00.982Z,16.45
2022-10-23T10:37:01.167Z,16.44
2022-10-23T10:38:00.275Z,16.43
2022-10-23T10:39:00.424Z,16.43
2022-10-23T10:40:00.570Z,16.42
2022-10-23T10:41:00.718Z,16.42
2022-10-23T10:42:00.880Z,16.44
2022-10-23T10:43:01.036Z,16.44
2022-10-23T10:44:01.151Z,16.46
2022-10-23T10:45:00.299Z,16.47
2022-10-23T10:46:00.456Z,16.49
2022-10-23T10:47:00.605Z,16.49
2022-10-23T10:48:00.773Z,16.5
2022-10-23T10:49:00.905Z,16.51
2022-10-23T10:50:01.046Z,16.54
2022-10-23T10:51:01.196Z,16.55
2022-10-23T10:52:00.343Z,16.57
2022-10-23T10:53:00.498Z,16.6
2022-10-23T10:54:00.681Z,16.63
2022-10-23T10:55:00.793Z,16.64
2022-10-23T10:56:00.983Z,16.65
2022-10-23T10:57:01.082Z,16.69
2022-10-23T10:58:01.257Z,16.71
2022-10-23T10:59:00.399Z,16.73
2022-10-23T11:00:00.552Z,16.75
2022-10-23T11:01:00.824Z,16.78
2022-10-23T11:02:00.925Z,16.8
2022-10-23T11:03:00.976Z,16.82
2022-10-23T11:04:01.114Z,16.86
2022-10-23T11:05:01.292Z,16.88
2022-10-23T11:07:00.548Z,16.95
2022-10-23T11:08:00.692Z,16.99
2022-10-23T11:09:19.447Z,17.02
2022-10-23T11:10:01.007Z,17.04
2022-10-23T11:11:01.144Z,17.06
2022-10-23T11:12:00.276Z,17.08
2022-10-23T11:13:00.420Z,17.11
2022-10-23T11:14:00.580Z,17.15
2022-10-23T11:15:00.740Z,17.17
2022-10-23T11:16:00.864Z,17.17
2022-10-23T11:17:01.011Z,17.19
2022-10-23T11:18:01.166Z,17.2
2022-10-23T11:19:00.312Z,17.23
2022-10-23T11:20:00.485Z,17.24
2022-10-23T11:21:00.603Z,17.28
2022-10-23T11:22:00.758Z,17.3
2022-10-23T11:23:00.896Z,17.32
2022-10-23T11:24:01.092Z,17.34
2022-10-23T11:25:01.232Z,17.35
2022-10-23T11:26:00.342Z,17.36
2022-10-23T11:27:00.498Z,17.39
2022-10-23T11:28:03.686Z,17.41
2022-10-23T11:29:00.789Z,17.45
2022-10-23T11:30:00.957Z,17.48
2022-10-23T11:31:01.114Z,17.5
2022-10-23T11:32:01.227Z,17.55
2022-10-23T11:33:00.382Z,17.56
2022-10-23T11:34:00.521Z,17.6
2022-10-23T11:35:00.670Z,17.62
2022-10-23T11:36:00.840Z,17.62
2022-10-23T11:37:00.958Z,17.56
2022-10-23T11:38:01.116Z,17.54
2022-10-23T11:39:00.255Z,17.55
2022-10-23T11:40:00.400Z,17.61
2022-10-23T11:41:00.582Z,17.63
2022-10-23T11:42:00.700Z,17.64
2022-10-23T11:43:00.846Z,17.65
2022-10-23T11:44:01.005Z,17.68
2022-10-23T11:45:01.149Z,17.72
2022-10-23T11:46:00.307Z,17.73
2022-10-23T11:47:00.442Z,17.73
2022-10-23T11:48:00.584Z,17.72
2022-10-23T11:49:00.751Z,17.7
2022-10-23T11:50:00.877Z,17.7
2022-10-23T11:51:04.253Z,17.72
2022-10-23T11:52:01.169Z,17.73
2022-10-23T11:53:13.586Z,17.72
2022-10-23T11:54:00.467Z,17.73
2022-10-23T11:55:00.615Z,17.76
2022-10-23T11:56:00.773Z,17.79
2022-10-23T11:57:00.915Z,17.8
2022-10-23T11:58:01.058Z,17.8
2022-10-23T11:59:01.209Z,17.8
2022-10-23T12:00:00.359Z,17.81
2022-10-23T12:01:00.567Z,17.81
2022-10-23T12:02:00.787Z,17.83
2022-10-23T12:03:00.864Z,17.85
2022-10-23T12:04:00.950Z,17.87
2022-10-23T12:05:01.096Z,17.89
2022-10-23T12:06:01.269Z,17.9
2022-10-23T12:07:00.411Z,17.92
2022-10-23T12:08:00.546Z,17.93
2022-10-23T12:09:00.698Z,17.94
2022-10-23T12:10:00.842Z,17.95
2022-10-23T12:11:00.990Z,17.98
2022-10-23T12:12:01.170Z,18
2022-10-23T12:13:00.299Z,18.03
2022-10-23T12:14:00.514Z,18.02
2022-10-23T12:15:00.590Z,18
2022-10-23T12:16:01.195Z,18
2022-10-23T12:17:00.913Z,18
2022-10-23T12:18:01.039Z,18
2022-10-23T12:19:01.171Z,17.99
2022-10-23T12:20:00.308Z,17.98
2022-10-23T12:21:00.469Z,17.99
2022-10-23T12:22:00.626Z,17.99
2022-10-23T12:23:00.760Z,18
2022-10-23T12:24:00.909Z,18.02
2022-10-23T12:25:01.052Z,18.04
2022-10-23T12:26:01.217Z,18.05
2022-10-23T12:27:00.346Z,18.08
2022-10-23T12:28:00.505Z,18.08
2022-10-23T12:29:00.634Z,18.1
2022-10-23T12:30:00.788Z,18.13
2022-10-23T12:31:00.950Z,18.13
2022-10-23T12:32:01.107Z,18.17
2022-10-23T12:33:01.246Z,18.17
2022-10-23T12:34:00.391Z,18.2
2022-10-23T12:35:00.533Z,18.19
2022-10-23T12:36:00.691Z,18.19
2022-10-23T12:37:00.857Z,18.19
2022-10-23T12:38:00.989Z,18.2
2022-10-23T12:39:01.145Z,18.22
2022-10-23T12:40:00.296Z,18.23
2022-10-23T12:41:00.438Z,18.24
2022-10-23T12:42:00.603Z,18.25
2022-10-23T12:43:00.743Z,18.28
2022-10-23T12:44:00.893Z,18.32
2022-10-23T12:45:01.032Z,18.36
2022-10-23T12:46:01.184Z,18.38
2022-10-23T12:47:00.358Z,18.42
2022-10-23T12:48:00.479Z,18.46
2022-10-23T12:49:00.630Z,18.49
2022-10-23T12:50:00.773Z,18.5
2022-10-23T12:51:00.922Z,18.51
2022-10-23T12:52:01.074Z,18.5
2022-10-23T12:53:01.208Z,18.49
2022-10-23T12:54:00.350Z,18.48
2022-10-23T12:55:00.494Z,18.49
2022-10-23T12:57:00.815Z,18.47
2022-10-23T12:58:00.961Z,18.44
2022-10-23T12:59:01.111Z,18.42
2022-10-23T13:00:01.246Z,18.42
2022-10-23T13:01:00.545Z,18.42
2022-10-23T13:02:00.609Z,18.43
2022-10-23T13:03:00.709Z,18.42
2022-10-23T13:04:00.830Z,18.42
2022-10-23T13:05:00.975Z,18.42
2022-10-23T13:06:01.151Z,18.42
2022-10-23T13:07:00.271Z,18.41
2022-10-23T13:08:00.420Z,18.41
2022-10-23T13:09:00.577Z,18.42